createdAt,value
2023-03-26T00:01:26.176Z,10.76
2023-03-26T00:04:25.925Z,10.77
2023-03-26T00:07:14.375Z,10.81
2023-03-26T00:09:54.959Z,10.84
2023-03-26T00:12:43.172Z,10.86
2023-03-26T00:15:25.925Z,10.92
2023-03-26T00:18:15.900Z,10.90
2023-03-26T00:20:57.148Z,10.96
2023-03-26T00:23:44.896Z,10.95
2023-03-26T00:26:26.134Z,10.97
2023-03-26T00:29:17.028Z,10.98
2023-03-26T00:32:00.212Z,11.03
2023-03-26T00:34:48.932Z,10.97
2023-03-26T00:37:33.877Z,10.97
2023-03-26T00:40:21.900Z,10.95
2023-03-26T00:43:10.200Z,10.86
2023-03-26T00:46:00.937Z,10.83
2023-03-26T00:48:50.928Z,10.75
2023-03-26T00:51:34.061Z,10.69
2023-03-26T00:54:22.878Z,10.65
2023-03-26T00:57:12.901Z,10.62
2023-03-26T00:59:55.905Z,10.57
2023-03-26T01:02:45.277Z,10.56
2023-03-26T01:05:50.896Z,10.52
2023-03-26T01:08:43.101Z,10.51
2023-03-26T01:11:40.827Z,10.49
2023-03-26T01:14:31.086Z,10.50
2023-03-26T01:17:14.890Z,10.47
2023-03-26T01:20:12.834Z,10.48
2023-03-26T01:22:59.368Z,10.50
2023-03-26T01:25:55.996Z,10.56
2023-03-26T01:28:43.025Z,10.59
2023-03-26T01:31:37.823Z,10.64
2023-03-26T01:34:30.732Z,10.68
2023-03-26T01:37:27.811Z,10.72
2023-03-26T01:40:13.245Z,10.74
2023-03-26T01:43:12.806Z,10.73
2023-03-26T01:45:57.116Z,10.77
2023-03-26T01:48:47.818Z,10.81
2023-03-26T01:51:44.741Z,10.76
2023-03-26T01:54:30.500Z,10.60
2023-03-26T01:57:24.739Z,10.58
2023-03-26T02:00:29.005Z,10.52
2023-03-26T02:03:24.894Z,10.43
2023-03-26T02:06:18.374Z,10.36
2023-03-26T02:09:01.769Z,10.30
2023-03-26T02:11:53.025Z,10.23
2023-03-26T02:14:36.712Z,10.20
2023-03-26T02:17:36.765Z,10.19
2023-03-26T02:20:20.230Z,10.11
2023-03-26T02:23:07.737Z,10.09
2023-03-26T02:25:56.089Z,10.07
2023-03-26T02:28:37.697Z,10.01
2023-03-26T02:31:26.549Z,9.95
2023-03-26T02:34:10.168Z,9.92
2023-03-26T02:36:59.198Z,9.95
2023-03-26T02:39:47.700Z,9.97
2023-03-26T02:42:36.546Z,9.91
2023-03-26T02:45:24.685Z,9.90
2023-03-26T02:48:18.655Z,9.89
2023-03-26T02:51:06.820Z,9.85
2023-03-26T02:54:17.665Z,9.81
2023-03-26T02:57:01.961Z,9.75
2023-03-26T02:59:53.695Z,9.72
2023-03-26T03:02:48.284Z,9.66
2023-03-26T03:05:49.730Z,9.73
2023-03-26T03:09:01.674Z,9.83
2023-03-26T03:11:56.657Z,9.91
2023-03-26T03:14:45.657Z,9.89
2023-03-26T03:17:26.957Z,9.88
2023-03-26T03:20:17.602Z,9.92
2023-03-26T03:22:59.872Z,10.01
2023-03-26T03:25:49.620Z,10.12
2023-03-26T03:28:31.910Z,10.17
2023-03-26T03:31:19.710Z,10.27
2023-03-26T03:34:04.825Z,10.32
2023-03-26T03:36:58.616Z,10.38
2023-03-26T03:39:54.584Z,10.43
2023-03-26T03:42:46.782Z,10.45
2023-03-26T03:45:37.610Z,10.43
2023-03-26T03:48:52.855Z,10.54
2023-03-26T03:51:46.590Z,10.59
2023-03-26T03:54:35.403Z,10.61
2023-03-26T03:57:34.616Z,10.62
2023-03-26T04:00:30.556Z,10.41
2023-03-26T04:03:33.845Z,9.64
2023-03-26T04:06:27.531Z,8.84
2023-03-26T04:09:10.343Z,8.48
2023-03-26T04:12:00.562Z,8.27
2023-03-26T04:14:51.766Z,8.07
2023-03-26T04:17:48.570Z,7.94
2023-03-26T04:20:32.199Z,7.92
2023-03-26T04:23:20.534Z,7.90
2023-03-26T04:26:17.556Z,7.82
2023-03-26T04:29:13.840Z,7.75
2023-03-26T04:32:05.539Z,7.76
2023-03-26T04:34:55.765Z,7.80
2023-03-26T04:37:41.548Z,7.81
2023-03-26T04:40:30.631Z,7.79
2023-03-26T04:43:32.581Z,7.76
2023-03-26T04:46:50.568Z,7.79
2023-03-26T04:49:41.449Z,7.79
2023-03-26T04:52:32.514Z,7.78
2023-03-26T04:55:37.761Z,7.86
2023-03-26T04:58:36.488Z,7.88
2023-03-26T05:01:18.906Z,7.95
2023-03-26T05:04:07.490Z,7.94
2023-03-26T05:06:49.775Z,7.97
2023-03-26T05:09:48.455Z,7.98
2023-03-26T05:12:44.423Z,7.98
2023-03-26T05:15:33.468Z,7.96
2023-03-26T05:18:42.462Z,7.91
2023-03-26T05:21:30.658Z,7.91
2023-03-26T05:24:12.427Z,7.89
2023-03-26T05:27:02.705Z,7.91
2023-03-26T05:29:50.480Z,7.89
2023-03-26T05:32:38.719Z,7.90
2023-03-26T05:35:22.455Z,7.89
2023-03-26T05:38:10.874Z,8.00
2023-03-26T05:40:51.405Z,8.06
2023-03-26T05:43:48.378Z,8.12
2023-03-26T05:46:40.752Z,8.21
2023-03-26T05:49:28.619Z,8.26
2023-03-26T05:52:19.104Z,8.28
2023-03-26T05:55:20.458Z,8.26
2023-03-26T05:58:20.141Z,8.28
2023-03-26T06:01:29.400Z,8.24
2023-03-26T06:04:38.520Z,8.14
2023-03-26T06:07:51.735Z,8.07
2023-03-26T06:10:46.346Z,8.05
2023-03-26T06:13:41.323Z,8.03
2023-03-26T06:16:31.400Z,8.04
2023-03-26T06:19:21.588Z,8.03
2023-03-26T06:22:13.465Z,8.06
2023-03-26T06:25:13.543Z,8.09
2023-03-26T06:28:22.337Z,8.15
2023-03-26T06:31:20.403Z,8.21
2023-03-26T06:34:12.578Z,8.26
2023-03-26T06:37:00.294Z,8.26
2023-03-26T06:39:49.572Z,8.26
2023-03-26T06:43:09.915Z,8.26
2023-03-26T06:46:10.597Z,8.34
2023-03-26T06:49:17.281Z,8.36
2023-03-26T06:52:28.332Z,8.41
2023-03-26T06:55:32.559Z,8.47
2023-03-26T06:58:29.276Z,8.56
2023-03-26T07:01:29.541Z,8.68
2023-03-26T07:04:36.287Z,8.89
2023-03-26T07:07:46.503Z,9.29
2023-03-26T07:10:48.012Z,9.80
2023-03-26T07:14:03.252Z,10.18
2023-03-26T07:17:23.219Z,11.36
2023-03-26T07:20:27.282Z,12.31
2023-03-26T07:23:20.633Z,13.17
2023-03-26T07:26:31.321Z,13.73
2023-03-26T07:29:40.264Z,13.80
2023-03-26T07:32:49.529Z,14.49
2023-03-26T07:36:03.209Z,14.41
2023-03-26T07:39:28.095Z,13.45
2023-03-26T07:42:58.216Z,12.58
2023-03-26T07:46:05.739Z,12.09
2023-03-26T07:48:58.185Z,11.81
2023-03-26T07:52:01.399Z,11.53
2023-03-26T07:55:31.212Z,11.24
2023-03-26T07:58:57.301Z,10.96
2023-03-26T08:02:26.498Z,10.73
2023-03-26T08:05:33.248Z,10.56
2023-03-26T08:08:50.491Z,10.33
2023-03-26T08:12:09.200Z,10.03
2023-03-26T08:14:59.369Z,9.85
2023-03-26T08:17:52.200Z,9.75
2023-03-26T08:20:48.412Z,9.63
2023-03-26T08:23:50.702Z,9.60
2023-03-26T08:26:41.536Z,9.54
2023-03-26T08:29:42.166Z,9.54
2023-03-26T08:32:33.200Z,9.61
2023-03-26T08:35:23.409Z,9.79
2023-03-26T08:38:04.147Z,10.02
2023-03-26T08:41:47.346Z,10.66
2023-03-26T08:45:13.149Z,13.26
2023-03-26T08:48:46.113Z,15.74
2023-03-26T08:51:59.439Z,17.08
2023-03-26T08:55:26.143Z,19.17
2023-03-26T08:58:37.039Z,20.86
2023-03-26T09:02:03.452Z,21.84
2023-03-26T09:05:18.190Z,22.22
2023-03-26T09:08:59.136Z,22.67
2023-03-26T09:12:46.022Z,23.36
2023-03-26T09:16:12.143Z,24.15
2023-03-26T09:19:43.109Z,24.39
2023-03-26T09:23:03.330Z,22.53
2023-03-26T09:26:12.077Z,21.31
2023-03-26T09:29:48.270Z,22.55
2023-03-26T09:33:06.084Z,23.78
2023-03-26T09:36:32.213Z,24.47
2023-03-26T09:39:24.415Z,24.75
2023-03-26T09:42:31.121Z,24.37
2023-03-26T09:46:00.325Z,24.35
2023-03-26T09:49:10.035Z,24.62
2023-03-26T09:52:32.010Z,24.62
2023-03-26T09:55:38.672Z,22.56
2023-03-26T09:58:56.024Z,21.08
2023-03-26T10:01:47.346Z,21.46
2023-03-26T10:05:11.019Z,21.30
2023-03-26T10:08:16.036Z,20.42
2023-03-26T10:11:04.594Z,20.48
2023-03-26T10:14:07.016Z,19.97
2023-03-26T10:17:07.198Z,20.44
2023-03-26T10:20:05.994Z,21.14
2023-03-26T10:23:04.248Z,21.26
2023-03-26T10:26:00.964Z,20.16
2023-03-26T10:29:02.383Z,19.53
2023-03-26T10:31:49.980Z,18.28
2023-03-26T10:35:04.990Z,17.26
2023-03-26T10:38:09.159Z,16.46
2023-03-26T10:41:02.993Z,16.25
2023-03-26T10:44:07.843Z,16.24
2023-03-26T10:47:14.972Z,16.00
2023-03-26T10:50:28.178Z,16.00
2023-03-26T10:53:16.976Z,16.15
2023-03-26T10:56:14.034Z,16.43
2023-03-26T10:58:56.967Z,16.61
2023-03-26T11:01:51.360Z,16.49
2023-03-26T11:04:41.923Z,16.22
2023-03-26T11:07:36.912Z,16.48
2023-03-26T11:10:28.123Z,16.38
2023-03-26T11:13:38.970Z,16.05
2023-03-26T11:16:33.146Z,15.92
2023-03-26T11:19:24.936Z,15.96
2023-03-26T11:22:25.176Z,15.84
2023-03-26T11:25:38.881Z,16.19
2023-03-26T11:29:03.366Z,16.23
2023-03-26T11:32:02.422Z,16.06
2023-03-26T11:34:53.856Z,16.12
2023-03-26T11:37:49.086Z,16.00
2023-03-26T11:40:36.870Z,16.15
2023-03-26T11:43:31.393Z,16.27
2023-03-26T11:46:24.995Z,16.49
2023-03-26T11:49:18.058Z,16.61
2023-03-26T11:51:59.849Z,16.25
2023-03-26T11:54:49.857Z,16.38
2023-03-26T11:57:36.168Z,16.55
2023-03-26T12:00:27.834Z,16.66
2023-03-26T12:03:12.072Z,16.61
2023-03-26T12:06:08.863Z,16.62
2023-03-26T12:08:51.077Z,16.34
2023-03-26T12:11:41.845Z,15.92
2023-03-26T12:14:33.054Z,16.06
2023-03-26T12:17:16.885Z,16.22
2023-03-26T12:20:13.833Z,15.94
2023-03-26T12:22:59.544Z,15.64
2023-03-26T12:25:49.790Z,15.47
2023-03-26T12:28:41.431Z,15.11
2023-03-26T12:31:25.846Z,14.97
2023-03-26T12:34:21.205Z,14.77
2023-03-26T12:37:03.836Z,14.85
2023-03-26T12:40:09.517Z,15.16
2023-03-26T12:44:54.655Z,15.10
2023-03-26T12:47:55.511Z,15.04
2023-03-26T12:49:12.043Z,14.81
2023-03-26T12:52:03.963Z,14.67
2023-03-26T12:54:57.940Z,14.53
2023-03-26T12:57:53.796Z,14.39
2023-03-26T13:00:44.986Z,14.27
2023-03-26T13:03:49.689Z,14.41
2023-03-26T13:06:59.721Z,14.67
2023-03-26T13:10:33.764Z,14.88
2023-03-26T13:14:17.712Z,15.21
2023-03-26T13:17:13.041Z,15.67
2023-03-26T13:20:04.702Z,15.81
2023-03-26T13:23:10.871Z,15.42
2023-03-26T13:26:08.998Z,15.15
2023-03-26T13:29:01.707Z,15.21
2023-03-26T13:31:49.276Z,15.59
2023-03-26T13:34:44.675Z,15.84
2023-03-26T13:37:35.795Z,15.51
2023-03-26T13:40:35.711Z,15.31
2023-03-26T13:43:33.921Z,15.40
2023-03-26T13:46:26.769Z,15.50
2023-03-26T13:49:20.028Z,15.93
2023-03-26T13:52:06.681Z,16.23
2023-03-26T13:54:59.922Z,16.25
2023-03-26T13:57:46.731Z,16.42
2023-03-26T14:00:41.989Z,16.22
2023-03-26T14:03:32.670Z,15.88
2023-03-26T14:06:48.676Z,15.95
2023-03-26T14:09:38.304Z,16.00
2023-03-26T14:12:43.666Z,15.91
2023-03-26T14:15:38.966Z,15.62
2023-03-26T14:18:35.670Z,15.22
2023-03-26T14:21:57.006Z,15.41
2023-03-26T14:24:59.598Z,15.66
2023-03-26T14:28:05.648Z,15.93
2023-03-26T14:31:21.378Z,15.63
2023-03-26T14:34:35.678Z,15.44
2023-03-26T14:37:57.502Z,15.82
2023-03-26T14:40:58.794Z,16.03
2023-03-26T14:44:11.634Z,15.97
2023-03-26T14:47:16.070Z,15.99
2023-03-26T14:50:42.644Z,15.95
2023-03-26T14:53:41.421Z,15.95
2023-03-26T14:56:48.660Z,15.92
2023-03-26T15:00:08.639Z,15.70
2023-03-26T15:03:22.807Z,15.50
2023-03-26T15:06:34.555Z,15.39
2023-03-26T15:10:06.124Z,14.92
2023-03-26T15:13:26.558Z,14.56
2023-03-26T15:16:53.579Z,14.57
2023-03-26T15:20:14.816Z,14.60
2023-03-26T15:23:24.562Z,14.65
2023-03-26T15:27:02.130Z,14.43
2023-03-26T15:30:41.584Z,14.63
2023-03-26T15:33:59.515Z,14.75
2023-03-26T15:37:34.357Z,14.75
2023-03-26T15:40:44.540Z,14.71
2023-03-26T15:43:28.770Z,14.86
2023-03-26T15:46:38.533Z,14.86
2023-03-26T15:49:31.613Z,14.84
2023-03-26T15:52:32.765Z,14.73
2023-03-26T15:55:29.465Z,14.59
2023-03-26T15:58:25.751Z,14.44
2023-03-26T16:01:25.549Z,14.35
2023-03-26T16:04:29.707Z,14.17
2023-03-26T16:07:18.486Z,13.93
2023-03-26T16:10:21.739Z,13.73
2023-03-26T16:13:28.489Z,13.66
2023-03-26T16:16:39.430Z,13.64
2023-03-26T16:19:42.216Z,13.64
2023-03-26T16:22:43.794Z,13.64
2023-03-26T16:25:38.741Z,13.73
2023-03-26T16:28:39.406Z,13.72
2023-03-26T16:31:38.239Z,13.66
2023-03-26T16:34:38.460Z,13.64
2023-03-26T16:37:57.506Z,13.63
2023-03-26T16:41:00.381Z,13.72
2023-03-26T16:43:54.385Z,13.74
2023-03-26T16:46:56.668Z,13.83
2023-03-26T16:50:08.578Z,13.66
2023-03-26T16:53:04.651Z,13.44
2023-03-26T16:55:53.364Z,13.40
2023-03-26T16:58:55.118Z,13.31
2023-03-26T17:01:43.485Z,13.25
2023-03-26T17:04:40.083Z,13.07
2023-03-26T17:07:27.468Z,12.96
2023-03-26T17:10:30.826Z,12.83
2023-03-26T17:13:30.362Z,12.67
2023-03-26T17:16:27.474Z,12.54
2023-03-26T17:19:18.601Z,12.42
2023-03-26T17:22:13.375Z,12.40
2023-03-26T17:25:08.602Z,12.37
2023-03-26T17:28:30.367Z,12.41
2023-03-26T17:31:19.649Z,12.42
2023-03-26T17:34:43.465Z,12.39
2023-03-26T17:37:58.422Z,12.37
2023-03-26T17:40:54.858Z,12.35
2023-03-26T17:44:00.376Z,12.31
2023-03-26T17:46:51.637Z,12.29
2023-03-26T17:49:37.448Z,12.25
2023-03-26T17:52:29.546Z,12.23
2023-03-26T17:55:16.329Z,12.19
2023-03-26T17:58:06.937Z,12.15
2023-03-26T18:00:50.705Z,12.11
2023-03-26T18:03:44.185Z,12.12
2023-03-26T18:06:41.355Z,12.13
2023-03-26T18:09:45.442Z,12.08
2023-03-26T18:12:59.525Z,11.95
2023-03-26T18:16:09.561Z,11.79
2023-03-26T18:18:57.307Z,11.70
2023-03-26T18:21:48.334Z,11.65
2023-03-26T18:24:33.543Z,11.61
2023-03-26T18:27:24.318Z,11.60
2023-03-26T18:30:10.554Z,11.58
2023-03-26T18:33:04.334Z,11.58
2023-03-26T18:35:56.344Z,11.58
2023-03-26T18:38:40.609Z,11.59
2023-03-26T18:41:38.394Z,11.62
2023-03-26T18:44:27.548Z,11.66
2023-03-26T18:47:13.253Z,11.68
2023-03-26T18:50:04.840Z,11.70
2023-03-26T18:52:46.282Z,11.69
2023-03-26T18:55:39.625Z,11.72
2023-03-26T18:58:32.282Z,11.69
2023-03-26T19:01:25.972Z,11.71
2023-03-26T19:04:12.312Z,11.73
2023-03-26T19:07:01.296Z,11.69
2023-03-26T19:09:43.497Z,11.73
2023-03-26T19:12:39.209Z,11.71
2023-03-26T19:15:28.483Z,11.68
2023-03-26T19:18:16.142Z,11.68
2023-03-26T19:21:08.477Z,11.61
2023-03-26T19:23:50.600Z,11.63
2023-03-26T19:26:38.704Z,11.60
2023-03-26T19:29:23.125Z,11.63
2023-03-26T19:32:13.263Z,11.54
2023-03-26T19:34:56.441Z,11.60
2023-03-26T19:37:58.214Z,11.59
2023-03-26T19:40:41.513Z,11.63
2023-03-26T19:43:30.288Z,11.65
2023-03-26T19:46:12.567Z,11.69
2023-03-26T19:49:03.633Z,11.70
2023-03-26T19:51:46.185Z,11.70
2023-03-26T19:54:37.124Z,11.72
2023-03-26T19:57:18.722Z,11.74
2023-03-26T20:00:07.313Z,11.77
2023-03-26T20:02:48.905Z,11.70
2023-03-26T20:05:41.187Z,11.71
2023-03-26T20:08:27.557Z,11.71
2023-03-26T20:11:24.112Z,11.79
2023-03-26T20:14:31.271Z,11.82
2023-03-26T20:17:22.410Z,11.83
2023-03-26T20:20:04.192Z,11.82
2023-03-26T20:22:53.873Z,11.84
2023-03-26T20:25:40.103Z,11.84
2023-03-26T20:28:38.718Z,11.87
2023-03-26T20:31:31.068Z,11.88
2023-03-26T20:34:25.124Z,11.88
2023-03-26T20:37:07.072Z,11.88
2023-03-26T20:39:55.173Z,11.89
2023-03-26T20:42:36.664Z,11.91
2023-03-26T20:45:29.205Z,11.91
2023-03-26T20:48:12.031Z,11.95
2023-03-26T20:51:01.136Z,11.93
2023-03-26T20:53:46.214Z,11.96
2023-03-26T20:56:35.325Z,11.99
2023-03-26T20:59:19.008Z,11.96
2023-03-26T21:02:09.146Z,11.96
2023-03-26T21:04:58.043Z,11.97
2023-03-26T21:07:46.458Z,11.97
2023-03-26T21:10:33.082Z,12.00
2023-03-26T21:13:47.000Z,11.96
2023-03-26T21:16:36.209Z,11.93
2023-03-26T21:19:22.325Z,11.90
2023-03-26T21:22:19.985Z,11.84
2023-03-26T21:25:18.954Z,11.82
2023-03-26T21:28:31.962Z,11.76
2023-03-26T21:31:31.038Z,11.74
2023-03-26T21:34:22.338Z,11.69
2023-03-26T21:37:04.025Z,11.69
2023-03-26T21:39:52.681Z,11.63
2023-03-26T21:42:35.990Z,11.59
2023-03-26T21:45:32.257Z,11.50
2023-03-26T21:48:14.560Z,11.40
2023-03-26T21:51:09.222Z,11.34
2023-03-26T21:53:58.138Z,11.29
2023-03-26T21:56:52.998Z,11.24
2023-03-26T21:59:49.933Z,11.17
2023-03-26T22:02:39.951Z,11.12
2023-03-26T22:05:33.347Z,11.06
2023-03-26T22:08:27.924Z,11.02
2023-03-26T22:11:18.006Z,10.96
2023-03-26T22:14:13.124Z,10.92
2023-03-26T22:17:01.006Z,10.89
2023-03-26T22:19:42.254Z,10.90
2023-03-26T22:22:32.935Z,10.90
2023-03-26T22:25:17.838Z,10.94
2023-03-26T22:28:05.911Z,10.89
2023-03-26T22:30:47.538Z,10.89
2023-03-26T22:33:35.949Z,10.89
2023-03-26T22:36:25.905Z,10.86
2023-03-26T22:39:08.385Z,10.84
2023-03-26T22:41:57.839Z,10.86
2023-03-26T22:44:46.076Z,10.84
2023-03-26T22:47:27.898Z,10.80
2023-03-26T22:50:17.043Z,10.76
2023-03-26T22:52:58.019Z,10.78
2023-03-26T22:55:46.910Z,10.79
2023-03-26T22:58:29.928Z,10.84
2023-03-26T23:01:20.098Z,10.90
2023-03-26T23:04:01.942Z,10.89
2023-03-26T23:06:56.816Z,10.90
2023-03-26T23:09:45.771Z,10.93
2023-03-26T23:12:27.902Z,10.99
2023-03-26T23:15:20.722Z,11.06
2023-03-26T23:18:02.834Z,11.13
2023-03-26T23:20:57.229Z,11.18
2023-03-26T23:23:40.878Z,11.25
2023-03-26T23:26:34.999Z,11.27
2023-03-26T23:29:20.808Z,11.29
2023-03-26T23:32:24.176Z,11.36
2023-03-26T23:35:07.655Z,11.36
2023-03-26T23:37:57.755Z,11.38
2023-03-26T23:40:46.039Z,11.40
2023-03-26T23:43:38.767Z,11.40
2023-03-26T23:46:42.780Z,11.40
2023-03-26T23:49:25.734Z,11.40
2023-03-26T23:52:13.959Z,11.37
2023-03-26T23:54:55.926Z,11.39
2023-03-26T23:57:50.981Z,11.38
